Archival Weather

Annapolis United States Naval

Annapolis United States Naval, Maryland (KNAK)

Report from: Tuesday, June 6, 2023 10:54 AM UTC
Current time: Monday, June 17, 2024 9:58 AM UTC

Current weather – Weather history – Daily summaries
Weather forecast

Temperature15.6°C (60.1°F)
Dew point8.3°C (46.9°F)
Winds 4 kts (2.1 m/s, 4.6 mph) West (270°)
Visibility10 mi. (16.1 km)
Altimeter29.83 in.Hg (1010 mB)
Relative humidity62 %
Density altitude328 ft. (100 m)
Sea-level pressure101.0 kPa (1010 mB, 29.83 in.Hg)
Remarks Fully automated report
System requires maintenance
Automated weather observing station with precipitation discriminator
Flight conditions Visual Meteorological Conditions
Raw dataKNAK 061054Z AUTO 27004KT 10SM 16/08 A2983 RMK AO2 SLP103 T01560083 $
An error has occurred. This application may no longer respond until reloaded. Reload 🗙